PWSweather.com
Personal Weather Stations
Station Observations
KPASPRIN10
East Vincent, East Vincent, PA 19475

East VincentEast Vincent, PA 19475

Lat: 40.170948, Lon: -75.629681

Elevation: 404

Station Type: Davis VP2

http://www.evweather.com

High Low Average
Temperature 50.3°F10.2°C 27.4°F-2.6°C 38.1°F3.4°C
Dew Point 22.5°F-5.3°C 14.8°F-9.6°C 19.2°F-7.1°C
Winds 10.4 mph 16.7 kmh Calm Calm 5.0 mph WSW8.0 kmh WSW
Wind Gusts 15.0 mph24.1 kmh 1.2 mph1.9 kmh 6.0 mph9.7 kmh
Humidity 73% 27% 49%
Pressure 29.98 in1015.2 mb 29.83 in1010.2 mb -
Precipitation 0.00 in0.0 mm - -
Hour Temp Dew Point Humidity Winds Wind Gusts Pressure Precip Precip Rate Daily Precip Total
12:00 AM 31.6°F-0.2°C 20.8°F-6.2°C 64% 1.2 mph NE1.9 kmh NE 2.3 mph3.7 kmh 29.80 in1009.1 mb - 0.00 in0.0 mm 0.00 in0.0 mm
12:10 AM 30.8°F-0.7°C 19.7°F-6.8°C 63% 1.2 mph WSW1.9 kmh WSW 2.3 mph3.7 kmh 29.80 in1009.1 mb - 0.00 in0.0 mm 0.00 in0.0 mm
12:20 AM 30.6°F-0.8°C 19.1°F-7.2°C 62% 2.3 mph E3.7 kmh E 2.3 mph3.7 kmh 29.80 in1009.1 mb - 0.00 in0.0 mm 0.00 in0.0 mm
12:30 AM 30.6°F-0.8°C 19.1°F-7.2°C 62% 2.3 mph SSW3.7 kmh SSW 2.3 mph3.7 kmh 29.81 in1009.5 mb - 0.00 in0.0 mm 0.00 in0.0 mm
12:40 AM 30.4°F-0.9°C 20.0°F-6.7°C 65% Calm Calm 1.2 mph1.9 kmh 29.81 in1009.5 mb - 0.00 in0.0 mm 0.00 in0.0 mm
12:50 AM 29.9°F-1.2°C 19.9°F-6.7°C 66% Calm Calm -- 29.82 in1009.8 mb - 0.00 in0.0 mm 0.00 in0.0 mm
01:00 AM 28.9°F-1.7°C 19.3°F-7.1°C 67% 1.2 mph SSW1.9 kmh SSW 2.3 mph3.7 kmh 29.83 in1010.2 mb - 0.00 in0.0 mm 0.00 in0.0 mm
01:10 AM 29.3°F-1.5°C 19.3°F-7.1°C 66% 2.3 mph SSW3.7 kmh SSW 2.3 mph3.7 kmh 29.83 in1010.2 mb - 0.00 in0.0 mm 0.00 in0.0 mm
01:20 AM 30.0°F-1.1°C 19.3°F-7.1°C 64% 2.3 mph WSW3.7 kmh WSW 3.5 mph5.6 kmh 29.84 in1010.5 mb - 0.00 in0.0 mm 0.00 in0.0 mm
01:30 AM 30.0°F-1.1°C 19.3°F-7.1°C 64% 3.5 mph WSW5.6 kmh WSW 3.5 mph5.6 kmh 29.85 in1010.8 mb - 0.00 in0.0 mm 0.00 in0.0 mm
01:40 AM 30.0°F-1.1°C 19.7°F-6.8°C 65% 3.5 mph WSW5.6 kmh WSW 3.5 mph5.6 kmh 29.85 in1010.8 mb - 0.00 in0.0 mm 0.00 in0.0 mm
01:50 AM 29.5°F-1.4°C 19.8°F-6.8°C 67% 3.5 mph WSW5.6 kmh WSW 3.5 mph5.6 kmh 29.86 in1011.2 mb - 0.00 in0.0 mm 0.00 in0.0 mm
02:00 AM 29.0°F-1.7°C 19.8°F-6.8°C 68% 3.5 mph WSW5.6 kmh WSW 3.5 mph5.6 kmh 29.86 in1011.2 mb - 0.00 in0.0 mm 0.00 in0.0 mm
02:10 AM 28.8°F-1.8°C 19.6°F-6.9°C 68% 2.3 mph WSW3.7 kmh WSW 3.5 mph5.6 kmh 29.86 in1011.2 mb - 0.00 in0.0 mm 0.00 in0.0 mm
02:20 AM 28.6°F-1.9°C 19.7°F-6.8°C 69% 2.3 mph WSW3.7 kmh WSW 3.5 mph5.6 kmh 29.86 in1011.2 mb - 0.00 in0.0 mm 0.00 in0.0 mm
02:30 AM 28.2°F-2.1°C 19.7°F-6.8°C 70% 4.6 mph WSW7.4 kmh WSW 5.8 mph9.3 kmh 29.87 in1011.5 mb - 0.00 in0.0 mm 0.00 in0.0 mm
02:40 AM 28.4°F-2.0°C 19.9°F-6.7°C 70% 5.8 mph SW9.3 kmh SW 6.9 mph11.1 kmh 29.87 in1011.5 mb - 0.00 in0.0 mm 0.00 in0.0 mm
02:50 AM 27.6°F-2.4°C 19.8°F-6.8°C 72% 4.6 mph WSW7.4 kmh WSW 4.6 mph7.4 kmh 29.87 in1011.5 mb - 0.00 in0.0 mm 0.00 in0.0 mm
03:00 AM 27.5°F-2.5°C 19.7°F-6.8°C 72% 4.6 mph WSW7.4 kmh WSW 4.6 mph7.4 kmh 29.88 in1011.9 mb - 0.00 in0.0 mm 0.00 in0.0 mm
03:10 AM 27.5°F-2.5°C 20.0°F-6.7°C 73% 4.6 mph W7.4 kmh W 5.8 mph9.3 kmh 29.88 in1011.9 mb - 0.00 in0.0 mm 0.00 in0.0 mm
03:20 AM 27.6°F-2.4°C 19.8°F-6.8°C 72% 4.6 mph WSW7.4 kmh WSW 6.9 mph11.1 kmh 29.88 in1011.9 mb - 0.00 in0.0 mm 0.00 in0.0 mm
03:30 AM 27.5°F-2.5°C 20.0°F-6.7°C 73% 3.5 mph WSW5.6 kmh WSW 3.5 mph5.6 kmh 29.88 in1011.9 mb - 0.00 in0.0 mm 0.00 in0.0 mm
03:40 AM 27.4°F-2.6°C 19.9°F-6.7°C 73% 2.3 mph WSW3.7 kmh WSW 3.5 mph5.6 kmh 29.88 in1011.9 mb - 0.00 in0.0 mm 0.00 in0.0 mm
03:50 AM 27.8°F-2.3°C 19.9°F-6.7°C 72% 4.6 mph WSW7.4 kmh WSW 5.8 mph9.3 kmh 29.88 in1011.9 mb - 0.00 in0.0 mm 0.00 in0.0 mm
04:00 AM 27.9°F-2.3°C 20.4°F-6.4°C 73% 2.3 mph W3.7 kmh W 2.3 mph3.7 kmh 29.88 in1011.9 mb - 0.00 in0.0 mm 0.00 in0.0 mm
04:10 AM 27.8°F-2.3°C 19.9°F-6.7°C 72% 2.3 mph W3.7 kmh W 3.5 mph5.6 kmh 29.88 in1011.9 mb - 0.00 in0.0 mm 0.00 in0.0 mm
04:20 AM 27.9°F-2.3°C 19.4°F-7.0°C 70% 3.5 mph WSW5.6 kmh WSW 3.5 mph5.6 kmh 29.88 in1011.9 mb - 0.00 in0.0 mm 0.00 in0.0 mm
04:30 AM 28.4°F-2.0°C 20.5°F-6.4°C 72% 2.3 mph WSW3.7 kmh WSW 3.5 mph5.6 kmh 29.88 in1011.9 mb - 0.00 in0.0 mm 0.00 in0.0 mm
04:40 AM 28.2°F-2.1°C 19.7°F-6.8°C 70% Calm Calm 1.2 mph1.9 kmh 29.88 in1011.9 mb - 0.00 in0.0 mm 0.00 in0.0 mm
04:50 AM 27.8°F-2.3°C 19.6°F-6.9°C 71% 2.3 mph WSW3.7 kmh WSW 3.5 mph5.6 kmh 29.88 in1011.9 mb - 0.00 in0.0 mm 0.00 in0.0 mm
05:00 AM 27.6°F-2.4°C 19.4°F-7.0°C 71% 1.2 mph WSW1.9 kmh WSW 2.3 mph3.7 kmh 29.88 in1011.9 mb - 0.00 in0.0 mm 0.00 in0.0 mm
05:10 AM 27.5°F-2.5°C 19.7°F-6.8°C 72% 2.3 mph W3.7 kmh W 3.5 mph5.6 kmh 29.89 in1012.2 mb - 0.00 in0.0 mm 0.00 in0.0 mm
05:20 AM 27.7°F-2.4°C 20.2°F-6.6°C 73% 2.3 mph NW3.7 kmh NW 3.5 mph5.6 kmh 29.89 in1012.2 mb - 0.00 in0.0 mm 0.00 in0.0 mm
05:30 AM 28.2°F-2.1°C 20.3°F-6.5°C 72% 2.3 mph NW3.7 kmh NW 3.5 mph5.6 kmh 29.89 in1012.2 mb - 0.00 in0.0 mm 0.00 in0.0 mm
05:40 AM 28.5°F-1.9°C 20.6°F-6.3°C 72% 2.3 mph WNW3.7 kmh WNW 3.5 mph5.6 kmh 29.89 in1012.2 mb - 0.00 in0.0 mm 0.00 in0.0 mm
05:50 AM 28.9°F-1.7°C 20.7°F-6.3°C 71% 2.3 mph NW3.7 kmh NW 3.5 mph5.6 kmh 29.89 in1012.2 mb - 0.00 in0.0 mm 0.00 in0.0 mm
06:00 AM 29.2°F-1.6°C 20.9°F-6.2°C 71% 3.5 mph NW5.6 kmh NW 4.6 mph7.4 kmh 29.89 in1012.2 mb - 0.00 in0.0 mm 0.00 in0.0 mm
06:10 AM 29.8°F-1.2°C 21.2°F-6.0°C 70% 2.3 mph WNW3.7 kmh WNW 3.5 mph5.6 kmh 29.90 in1012.5 mb - 0.00 in0.0 mm 0.00 in0.0 mm
06:20 AM 30.1°F-1.1°C 21.2°F-6.0°C 69% 3.5 mph NW5.6 kmh NW 3.5 mph5.6 kmh 29.90 in1012.5 mb - 0.00 in0.0 mm 0.00 in0.0 mm
06:30 AM 29.9°F-1.2°C 21.3°F-5.9°C 70% 2.3 mph WNW3.7 kmh WNW 3.5 mph5.6 kmh 29.90 in1012.5 mb - 0.00 in0.0 mm 0.00 in0.0 mm
06:40 AM 29.7°F-1.3°C 21.1°F-6.1°C 70% 2.3 mph WNW3.7 kmh WNW 3.5 mph5.6 kmh 29.91 in1012.9 mb - 0.00 in0.0 mm 0.00 in0.0 mm
06:50 AM 29.5°F-1.4°C 20.9°F-6.2°C 70% 2.3 mph WNW3.7 kmh WNW 3.5 mph5.6 kmh 29.91 in1012.9 mb - 0.00 in0.0 mm 0.00 in0.0 mm
07:00 AM 29.2°F-1.6°C 21.0°F-6.1°C 71% 2.3 mph WNW3.7 kmh WNW 2.3 mph3.7 kmh 29.92 in1013.2 mb - 0.00 in0.0 mm 0.00 in0.0 mm
07:10 AM 28.9°F-1.7°C 21.0°F-6.1°C 72% 2.3 mph W3.7 kmh W 3.5 mph5.6 kmh 29.92 in1013.2 mb - 0.00 in0.0 mm 0.00 in0.0 mm
07:20 AM 28.7°F-1.8°C 20.8°F-6.2°C 72% 2.3 mph W3.7 kmh W 3.5 mph5.6 kmh 29.93 in1013.5 mb - 0.00 in0.0 mm 0.00 in0.0 mm
07:30 AM 28.6°F-1.9°C 20.7°F-6.3°C 72% 2.3 mph WNW3.7 kmh WNW 3.5 mph5.6 kmh 29.93 in1013.5 mb - 0.00 in0.0 mm 0.00 in0.0 mm
07:40 AM 29.3°F-1.5°C 20.4°F-6.4°C 69% 4.6 mph NNW7.4 kmh NNW 8.1 mph13.0 kmh 29.93 in1013.5 mb - 0.00 in0.0 mm 0.00 in0.0 mm
07:50 AM 30.7°F-0.7°C 20.4°F-6.4°C 65% 2.3 mph NNW3.7 kmh NNW 3.5 mph5.6 kmh 29.94 in1013.9 mb - 0.00 in0.0 mm 0.00 in0.0 mm
08:00 AM 32.0°F0.0°C 20.1°F-6.6°C 61% 3.5 mph NW5.6 kmh NW 4.6 mph7.4 kmh 29.95 in1014.2 mb - 0.00 in0.0 mm 0.00 in0.0 mm
08:10 AM 33.0°F0.6°C 19.8°F-6.8°C 58% 3.5 mph NW5.6 kmh NW 3.5 mph5.6 kmh 29.95 in1014.2 mb - 0.00 in0.0 mm 0.00 in0.0 mm
08:20 AM 33.6°F0.9°C 20.0°F-6.7°C 57% 4.6 mph N7.4 kmh N 6.9 mph11.1 kmh 29.95 in1014.2 mb - 0.00 in0.0 mm 0.00 in0.0 mm
08:30 AM 33.8°F1.0°C 21.4°F-5.9°C 60% 4.6 mph NNE7.4 kmh NNE 4.6 mph7.4 kmh 29.95 in1014.2 mb - 0.00 in0.0 mm 0.00 in0.0 mm
08:40 AM 33.4°F0.8°C 21.4°F-5.9°C 61% 5.8 mph NE9.3 kmh NE 8.1 mph13.0 kmh 29.95 in1014.2 mb - 0.00 in0.0 mm 0.00 in0.0 mm
08:50 AM 33.5°F0.8°C 21.5°F-5.8°C 61% 4.6 mph NNE7.4 kmh NNE 4.6 mph7.4 kmh 29.96 in1014.6 mb - 0.00 in0.0 mm 0.00 in0.0 mm
09:00 AM 34.2°F1.2°C 20.9°F-6.2°C 58% 8.1 mph N13.0 kmh N 11.5 mph18.5 kmh 29.96 in1014.6 mb - 0.00 in0.0 mm 0.00 in0.0 mm
09:10 AM 34.8°F1.6°C 20.3°F-6.5°C 55% 4.6 mph NNE7.4 kmh NNE 5.8 mph9.3 kmh 29.96 in1014.6 mb - 0.00 in0.0 mm 0.00 in0.0 mm
09:20 AM 35.2°F1.8°C 19.3°F-7.1°C 52% 9.2 mph NW14.8 kmh NW 11.5 mph18.5 kmh 29.96 in1014.6 mb - 0.00 in0.0 mm 0.00 in0.0 mm
09:30 AM 35.2°F1.8°C 17.9°F-7.8°C 49% 6.9 mph NW11.1 kmh NW 11.5 mph18.5 kmh 29.96 in1014.6 mb - 0.00 in0.0 mm 0.00 in0.0 mm
09:40 AM 35.3°F1.8°C 18.0°F-7.8°C 49% 6.9 mph NW11.1 kmh NW 8.1 mph13.0 kmh 29.96 in1014.6 mb - 0.00 in0.0 mm 0.00 in0.0 mm
09:50 AM 35.4°F1.9°C 17.6°F-8.0°C 48% 5.8 mph NNW9.3 kmh NNW 5.8 mph9.3 kmh 29.96 in1014.6 mb - 0.00 in0.0 mm 0.00 in0.0 mm
10:00 AM 35.7°F2.1°C 15.9°F-8.9°C 44% 6.9 mph NNW11.1 kmh NNW 8.1 mph13.0 kmh 29.97 in1014.9 mb - 0.00 in0.0 mm 0.00 in0.0 mm
10:10 AM 36.0°F2.2°C 15.1°F-9.4°C 42% 10.4 mph N16.7 kmh N 15.0 mph24.1 kmh 29.98 in1015.2 mb - 0.00 in0.0 mm 0.00 in0.0 mm
10:20 AM 36.7°F2.6°C 17.3°F-8.2°C 45% 3.5 mph WNW5.6 kmh WNW 6.9 mph11.1 kmh 29.98 in1015.2 mb - 0.00 in0.0 mm 0.00 in0.0 mm
10:30 AM 37.0°F2.8°C 16.0°F-8.9°C 42% 10.4 mph NNW16.7 kmh NNW 11.5 mph18.5 kmh 29.98 in1015.2 mb - 0.00 in0.0 mm 0.00 in0.0 mm
10:40 AM 37.1°F2.8°C 16.6°F-8.6°C 43% 6.9 mph NNE11.1 kmh NNE 9.2 mph14.8 kmh 29.98 in1015.2 mb - 0.00 in0.0 mm 0.00 in0.0 mm
10:50 AM 37.5°F3.1°C 16.5°F-8.6°C 42% 3.5 mph NNE5.6 kmh NNE 8.1 mph13.0 kmh 29.98 in1015.2 mb - 0.00 in0.0 mm 0.00 in0.0 mm
11:00 AM 38.3°F3.5°C 18.3°F-7.6°C 44% 4.6 mph NW7.4 kmh NW 10.4 mph16.7 kmh 29.98 in1015.2 mb - 0.00 in0.0 mm 0.00 in0.0 mm
11:10 AM 38.5°F3.6°C 15.6°F-9.1°C 39% 8.1 mph N13.0 kmh N 11.5 mph18.5 kmh 29.98 in1015.2 mb - 0.00 in0.0 mm 0.00 in0.0 mm
11:20 AM 38.6°F3.7°C 16.3°F-8.7°C 40% 9.2 mph WNW14.8 kmh WNW 13.8 mph22.2 kmh 29.98 in1015.2 mb - 0.00 in0.0 mm 0.00 in0.0 mm
11:30 AM 38.9°F3.8°C 14.8°F-9.6°C 37% 8.1 mph NW13.0 kmh NW 13.8 mph22.2 kmh 29.97 in1014.9 mb - 0.00 in0.0 mm 0.00 in0.0 mm
11:40 AM 39.3°F4.1°C 15.1°F-9.4°C 37% 8.1 mph NW13.0 kmh NW 9.2 mph14.8 kmh 29.98 in1015.2 mb - 0.00 in0.0 mm 0.00 in0.0 mm
11:50 AM 39.9°F4.4°C 17.5°F-8.1°C 40% 4.6 mph NE7.4 kmh NE 6.9 mph11.1 kmh 29.97 in1014.9 mb - 0.00 in0.0 mm 0.00 in0.0 mm
12:00 PM 40.9°F4.9°C 16.6°F-8.6°C 37% 6.9 mph N11.1 kmh N 10.4 mph16.7 kmh 29.97 in1014.9 mb - 0.00 in0.0 mm 0.00 in0.0 mm
12:10 PM 41.3°F5.2°C 15.0°F-9.4°C 34% 8.1 mph N13.0 kmh N 11.5 mph18.5 kmh 29.97 in1014.9 mb - 0.00 in0.0 mm 0.00 in0.0 mm
12:20 PM 42.0°F5.6°C 17.6°F-8.0°C 37% 6.9 mph N11.1 kmh N 9.2 mph14.8 kmh 29.97 in1014.9 mb - 0.00 in0.0 mm 0.00 in0.0 mm
12:30 PM 42.2°F5.7°C 18.3°F-7.6°C 38% 8.1 mph NW13.0 kmh NW 12.7 mph20.4 kmh 29.97 in1014.9 mb - 0.00 in0.0 mm 0.00 in0.0 mm
12:40 PM 42.3°F5.7°C 17.9°F-7.8°C 37% 5.8 mph N9.3 kmh N 8.1 mph13.0 kmh 29.96 in1014.6 mb - 0.00 in0.0 mm 0.00 in0.0 mm
12:50 PM 42.6°F5.9°C 16.8°F-8.4°C 35% 6.9 mph W11.1 kmh W 11.5 mph18.5 kmh 29.96 in1014.6 mb - 0.00 in0.0 mm 0.00 in0.0 mm
01:00 PM 43.1°F6.2°C 17.2°F-8.2°C 35% 5.8 mph NW9.3 kmh NW 11.5 mph18.5 kmh 29.96 in1014.6 mb - 0.00 in0.0 mm 0.00 in0.0 mm
01:10 PM 43.7°F6.5°C 19.1°F-7.2°C 37% 6.9 mph NW11.1 kmh NW 9.2 mph14.8 kmh 29.95 in1014.2 mb - 0.00 in0.0 mm 0.00 in0.0 mm
01:20 PM 43.9°F6.6°C 18.0°F-7.8°C 35% 3.5 mph NW5.6 kmh NW 8.1 mph13.0 kmh 29.95 in1014.2 mb - 0.00 in0.0 mm 0.00 in0.0 mm
01:30 PM 44.2°F6.8°C 18.9°F-7.3°C 36% 5.8 mph N9.3 kmh N 12.7 mph20.4 kmh 29.94 in1013.9 mb - 0.00 in0.0 mm 0.00 in0.0 mm
01:40 PM 44.3°F6.8°C 19.0°F-7.2°C 36% 9.2 mph NW14.8 kmh NW 11.5 mph18.5 kmh 29.94 in1013.9 mb - 0.00 in0.0 mm 0.00 in0.0 mm
01:50 PM 44.6°F7.0°C 19.3°F-7.1°C 36% 8.1 mph NW13.0 kmh NW 13.8 mph22.2 kmh 29.94 in1013.9 mb - 0.00 in0.0 mm 0.00 in0.0 mm
02:00 PM 45.6°F7.6°C 21.4°F-5.9°C 38% 6.9 mph N11.1 kmh N 8.1 mph13.0 kmh 29.93 in1013.5 mb - 0.00 in0.0 mm 0.00 in0.0 mm
02:10 PM 46.1°F7.8°C 19.9°F-6.7°C 35% 8.1 mph NW13.0 kmh NW 13.8 mph22.2 kmh 29.93 in1013.5 mb - 0.00 in0.0 mm 0.00 in0.0 mm
02:20 PM 46.1°F7.8°C 20.6°F-6.3°C 36% 8.1 mph WNW13.0 kmh WNW 11.5 mph18.5 kmh 29.93 in1013.5 mb - 0.00 in0.0 mm 0.00 in0.0 mm
02:30 PM 46.3°F7.9°C 20.1°F-6.6°C 35% 8.1 mph NNW13.0 kmh NNW 13.8 mph22.2 kmh 29.93 in1013.5 mb - 0.00 in0.0 mm 0.00 in0.0 mm
02:40 PM 46.4°F8.0°C 21.5°F-5.8°C 37% 9.2 mph WNW14.8 kmh WNW 11.5 mph18.5 kmh 29.92 in1013.2 mb - 0.00 in0.0 mm 0.00 in0.0 mm
02:50 PM 46.8°F8.2°C 21.3°F-5.9°C 36% 6.9 mph NW11.1 kmh NW 10.4 mph16.7 kmh 29.92 in1013.2 mb - 0.00 in0.0 mm 0.00 in0.0 mm
03:00 PM 47.1°F8.4°C 20.1°F-6.6°C 34% 3.5 mph WSW5.6 kmh WSW 5.8 mph9.3 kmh 29.92 in1013.2 mb - 0.00 in0.0 mm 0.00 in0.0 mm
03:10 PM 47.5°F8.6°C 19.8°F-6.8°C 33% 4.6 mph NW7.4 kmh NW 8.1 mph13.0 kmh 29.91 in1012.9 mb - 0.00 in0.0 mm 0.00 in0.0 mm
03:20 PM 47.8°F8.8°C 20.8°F-6.2°C 34% 6.9 mph NW11.1 kmh NW 10.4 mph16.7 kmh 29.91 in1012.9 mb - 0.00 in0.0 mm 0.00 in0.0 mm
03:30 PM 48.2°F9.0°C 21.8°F-5.7°C 35% 9.2 mph NW14.8 kmh NW 11.5 mph18.5 kmh 29.91 in1012.9 mb - 0.00 in0.0 mm 0.00 in0.0 mm
03:40 PM 48.3°F9.1°C 22.5°F-5.3°C 36% 8.1 mph WNW13.0 kmh WNW 11.5 mph18.5 kmh 29.90 in1012.5 mb - 0.00 in0.0 mm 0.00 in0.0 mm
03:50 PM 48.4°F9.1°C 20.6°F-6.3°C 33% 6.9 mph NW11.1 kmh NW 8.1 mph13.0 kmh 29.90 in1012.5 mb - 0.00 in0.0 mm 0.00 in0.0 mm
04:00 PM 48.6°F9.2°C 19.3°F-7.1°C 31% 8.1 mph WNW13.0 kmh WNW 13.8 mph22.2 kmh 29.90 in1012.5 mb - 0.00 in0.0 mm 0.00 in0.0 mm
04:10 PM 48.6°F9.2°C 20.8°F-6.2°C 33% 3.5 mph W5.6 kmh W 5.8 mph9.3 kmh 29.89 in1012.2 mb - 0.00 in0.0 mm 0.00 in0.0 mm
04:20 PM 49.2°F9.6°C 20.6°F-6.3°C 32% 8.1 mph NW13.0 kmh NW 10.4 mph16.7 kmh 29.89 in1012.2 mb - 0.00 in0.0 mm 0.00 in0.0 mm
04:30 PM 49.5°F9.7°C 19.3°F-7.1°C 30% 3.5 mph NNE5.6 kmh NNE 4.6 mph7.4 kmh 29.89 in1012.2 mb - 0.00 in0.0 mm 0.00 in0.0 mm
04:40 PM 49.9°F9.9°C 18.0°F-7.8°C 28% 3.5 mph N5.6 kmh N 5.8 mph9.3 kmh 29.89 in1012.2 mb - 0.00 in0.0 mm 0.00 in0.0 mm
04:50 PM 49.9°F9.9°C 19.7°F-6.8°C 30% 8.1 mph WNW13.0 kmh WNW 12.7 mph20.4 kmh 29.89 in1012.2 mb - 0.00 in0.0 mm 0.00 in0.0 mm
05:00 PM 49.8°F9.9°C 21.1°F-6.1°C 32% 10.4 mph W16.7 kmh W 11.5 mph18.5 kmh 29.89 in1012.2 mb - 0.00 in0.0 mm 0.00 in0.0 mm
05:10 PM 49.7°F9.8°C 18.7°F-7.4°C 29% 5.8 mph W9.3 kmh W 8.1 mph13.0 kmh 29.89 in1012.2 mb - 0.00 in0.0 mm 0.00 in0.0 mm
05:20 PM 49.9°F9.9°C 18.9°F-7.3°C 29% 4.6 mph NW7.4 kmh NW 8.1 mph13.0 kmh 29.89 in1012.2 mb - 0.00 in0.0 mm 0.00 in0.0 mm
05:30 PM 49.9°F9.9°C 18.0°F-7.8°C 28% 3.5 mph NW5.6 kmh NW 4.6 mph7.4 kmh 29.88 in1011.9 mb - 0.00 in0.0 mm 0.00 in0.0 mm
05:40 PM 50.1°F10.1°C 17.4°F-8.1°C 27% 4.6 mph WNW7.4 kmh WNW 6.9 mph11.1 kmh 29.88 in1011.9 mb - 0.00 in0.0 mm 0.00 in0.0 mm
05:50 PM 50.0°F10.0°C 17.3°F-8.2°C 27% 3.5 mph WNW5.6 kmh WNW 5.8 mph9.3 kmh 29.88 in1011.9 mb - 0.00 in0.0 mm 0.00 in0.0 mm
06:00 PM 50.2°F10.1°C 18.3°F-7.6°C 28% 3.5 mph W5.6 kmh W 5.8 mph9.3 kmh 29.88 in1011.9 mb - 0.00 in0.0 mm 0.00 in0.0 mm
06:10 PM 50.3°F10.2°C 18.4°F-7.6°C 28% 6.9 mph WSW11.1 kmh WSW 6.9 mph11.1 kmh 29.87 in1011.5 mb - 0.00 in0.0 mm 0.00 in0.0 mm
06:20 PM 50.0°F10.0°C 18.1°F-7.7°C 28% 5.8 mph WSW9.3 kmh WSW 5.8 mph9.3 kmh 29.87 in1011.5 mb - 0.00 in0.0 mm 0.00 in0.0 mm
06:30 PM 49.6°F9.8°C 18.6°F-7.4°C 29% 2.3 mph W3.7 kmh W 3.5 mph5.6 kmh 29.87 in1011.5 mb - 0.00 in0.0 mm 0.00 in0.0 mm
06:40 PM 49.3°F9.6°C 19.1°F-7.2°C 30% 2.3 mph W3.7 kmh W 3.5 mph5.6 kmh 29.88 in1011.9 mb - 0.00 in0.0 mm 0.00 in0.0 mm
06:50 PM 49.0°F9.4°C 18.0°F-7.8°C 29% 3.5 mph WSW5.6 kmh WSW 4.6 mph7.4 kmh 29.88 in1011.9 mb - 0.00 in0.0 mm 0.00 in0.0 mm
07:00 PM 48.2°F9.0°C 18.2°F-7.7°C 30% 2.3 mph WSW3.7 kmh WSW 3.5 mph5.6 kmh 29.88 in1011.9 mb - 0.00 in0.0 mm 0.00 in0.0 mm
07:10 PM 47.4°F8.6°C 18.2°F-7.7°C 31% 1.2 mph SW1.9 kmh SW 2.3 mph3.7 kmh 29.88 in1011.9 mb - 0.00 in0.0 mm 0.00 in0.0 mm
07:20 PM 46.5°F8.1°C 17.5°F-8.1°C 31% 1.2 mph SW1.9 kmh SW 3.5 mph5.6 kmh 29.88 in1011.9 mb - 0.00 in0.0 mm 0.00 in0.0 mm
07:30 PM 45.5°F7.5°C 17.3°F-8.2°C 32% 2.3 mph SW3.7 kmh SW 3.5 mph5.6 kmh 29.88 in1011.9 mb - 0.00 in0.0 mm 0.00 in0.0 mm
07:40 PM 44.5°F6.9°C 17.8°F-7.9°C 34% 2.3 mph SSW3.7 kmh SSW 3.5 mph5.6 kmh 29.88 in1011.9 mb - 0.00 in0.0 mm 0.00 in0.0 mm
07:50 PM 43.8°F6.6°C 17.9°F-7.8°C 35% 3.5 mph SSW5.6 kmh SSW 3.5 mph5.6 kmh 29.88 in1011.9 mb - 0.00 in0.0 mm 0.00 in0.0 mm
08:00 PM 43.0°F6.1°C 17.2°F-8.2°C 35% 2.3 mph SSW3.7 kmh SSW 3.5 mph5.6 kmh 29.88 in1011.9 mb - 0.00 in0.0 mm 0.00 in0.0 mm
08:10 PM 42.4°F5.8°C 17.3°F-8.2°C 36% 2.3 mph SSW3.7 kmh SSW 3.5 mph5.6 kmh 29.88 in1011.9 mb - 0.00 in0.0 mm 0.00 in0.0 mm
08:20 PM 41.7°F5.4°C 16.7°F-8.5°C 36% 2.3 mph SSW3.7 kmh SSW 3.5 mph5.6 kmh 29.88 in1011.9 mb - 0.00 in0.0 mm 0.00 in0.0 mm
08:30 PM 41.5°F5.3°C 17.1°F-8.3°C 37% 1.2 mph SSW1.9 kmh SSW 2.3 mph3.7 kmh 29.87 in1011.5 mb - 0.00 in0.0 mm 0.00 in0.0 mm
08:40 PM 41.3°F5.2°C 17.6°F-8.0°C 38% 1.2 mph SSW1.9 kmh SSW 2.3 mph3.7 kmh 29.88 in1011.9 mb - 0.00 in0.0 mm 0.00 in0.0 mm
08:50 PM 40.9°F4.9°C 18.4°F-7.6°C 40% 2.3 mph SSW3.7 kmh SSW 3.5 mph5.6 kmh 29.87 in1011.5 mb - 0.00 in0.0 mm 0.00 in0.0 mm
09:00 PM 40.4°F4.7°C 18.5°F-7.5°C 41% 3.5 mph SW5.6 kmh SW 3.5 mph5.6 kmh 29.87 in1011.5 mb - 0.00 in0.0 mm 0.00 in0.0 mm
09:10 PM 40.0°F4.4°C 18.2°F-7.7°C 41% 2.3 mph SW3.7 kmh SW 3.5 mph5.6 kmh 29.87 in1011.5 mb - 0.00 in0.0 mm 0.00 in0.0 mm
09:20 PM 39.6°F4.2°C 18.4°F-7.6°C 42% 2.3 mph SW3.7 kmh SW 3.5 mph5.6 kmh 29.87 in1011.5 mb - 0.00 in0.0 mm 0.00 in0.0 mm
09:30 PM 39.2°F4.0°C 19.1°F-7.2°C 44% 3.5 mph W5.6 kmh W 3.5 mph5.6 kmh 29.87 in1011.5 mb - 0.00 in0.0 mm 0.00 in0.0 mm
09:40 PM 38.9°F3.8°C 19.4°F-7.0°C 45% 3.5 mph WSW5.6 kmh WSW 3.5 mph5.6 kmh 29.87 in1011.5 mb - 0.00 in0.0 mm 0.00 in0.0 mm
09:50 PM 38.2°F3.4°C 20.2°F-6.6°C 48% 4.6 mph WSW7.4 kmh WSW 4.6 mph7.4 kmh 29.87 in1011.5 mb - 0.00 in0.0 mm 0.00 in0.0 mm
10:00 PM 37.2°F2.9°C 19.3°F-7.1°C 48% 4.6 mph WSW7.4 kmh WSW 4.6 mph7.4 kmh 29.87 in1011.5 mb - 0.00 in0.0 mm 0.00 in0.0 mm
10:10 PM 37.5°F3.1°C 19.6°F-6.9°C 48% 4.6 mph SW7.4 kmh SW 6.9 mph11.1 kmh 29.87 in1011.5 mb - 0.00 in0.0 mm 0.00 in0.0 mm
10:20 PM 38.2°F3.4°C 19.2°F-7.1°C 46% 5.8 mph WSW9.3 kmh WSW 6.9 mph11.1 kmh 29.87 in1011.5 mb - 0.00 in0.0 mm 0.00 in0.0 mm
10:30 PM 39.2°F4.0°C 19.6°F-6.9°C 45% 3.5 mph WSW5.6 kmh WSW 3.5 mph5.6 kmh 29.87 in1011.5 mb - 0.00 in0.0 mm 0.00 in0.0 mm
10:40 PM 39.3°F4.1°C 19.7°F-6.8°C 45% 4.6 mph WSW7.4 kmh WSW 4.6 mph7.4 kmh 29.87 in1011.5 mb - 0.00 in0.0 mm 0.00 in0.0 mm
10:50 PM 39.4°F4.1°C 19.2°F-7.1°C 44% 4.6 mph WSW7.4 kmh WSW 4.6 mph7.4 kmh 29.87 in1011.5 mb - 0.00 in0.0 mm 0.00 in0.0 mm
11:00 PM 39.6°F4.2°C 19.4°F-7.0°C 44% 4.6 mph WSW7.4 kmh WSW 8.1 mph13.0 kmh 29.87 in1011.5 mb - 0.00 in0.0 mm 0.00 in0.0 mm
11:10 PM 40.0°F4.4°C 19.8°F-6.8°C 44% 5.8 mph SW9.3 kmh SW 9.2 mph14.8 kmh 29.87 in1011.5 mb - 0.00 in0.0 mm 0.00 in0.0 mm
11:20 PM 39.9°F4.4°C 20.3°F-6.5°C 45% 4.6 mph SW7.4 kmh SW 5.8 mph9.3 kmh 29.86 in1011.2 mb - 0.00 in0.0 mm 0.00 in0.0 mm
11:30 PM 39.6°F4.2°C 19.9°F-6.7°C 45% 4.6 mph WSW7.4 kmh WSW 4.6 mph7.4 kmh 29.86 in1011.2 mb - 0.00 in0.0 mm 0.00 in0.0 mm
11:40 PM 38.8°F3.8°C 20.3°F-6.5°C 47% 4.6 mph WSW7.4 kmh WSW 5.8 mph9.3 kmh 29.86 in1011.2 mb - 0.00 in0.0 mm 0.00 in0.0 mm
11:50 PM 38.0°F3.3°C 20.0°F-6.7°C 48% 5.8 mph SW9.3 kmh SW 8.1 mph13.0 kmh 29.86 in1011.2 mb - 0.00 in0.0 mm 0.00 in0.0 mm